sensor_id;sensor_type;location;lat;lon;timestamp;pressure;altitude;pressure_sealevel;temperature;humidity
18504;BME280;9381;54.244;10.074;2022-12-07T00:03:27;100587.09;;;3.03;100.00
18504;BME280;9381;54.244;10.074;2022-12-07T00:08:27;100580.28;;;2.93;100.00
18504;BME280;9381;54.244;10.074;2022-12-07T00:13:28;100580.63;;;2.82;100.00
18504;BME280;9381;54.244;10.074;2022-12-07T00:18:28;100577.13;;;2.81;100.00
18504;BME280;9381;54.244;10.074;2022-12-07T00:23:29;100577.94;;;2.98;100.00
18504;BME280;9381;54.244;10.074;2022-12-07T00:28:30;100565.91;;;2.94;100.00
18504;BME280;9381;54.244;10.074;2022-12-07T00:33:31;100559.88;;;3.08;100.00
18504;BME280;9381;54.244;10.074;2022-12-07T00:38:32;100558.50;;;3.12;100.00
18504;BME280;9381;54.244;10.074;2022-12-07T00:43:33;100553.78;;;3.22;100.00
18504;BME280;9381;54.244;10.074;2022-12-07T00:48:34;100543.44;;;3.19;100.00
18504;BME280;9381;54.244;10.074;2022-12-07T00:53:35;100535.69;;;3.32;100.00
18504;BME280;9381;54.244;10.074;2022-12-07T00:58:36;100534.53;;;3.26;100.00
18504;BME280;9381;54.244;10.074;2022-12-07T01:03:37;100536.13;;;3.43;100.00
18504;BME280;9381;54.244;10.074;2022-12-07T01:08:37;100532.56;;;3.51;100.00
18504;BME280;9381;54.244;10.074;2022-12-07T01:13:38;100528.91;;;3.52;100.00
18504;BME280;9381;54.244;10.074;2022-12-07T01:18:38;100532.25;;;3.54;100.00
18504;BME280;9381;54.244;10.074;2022-12-07T01:23:40;100529.03;;;3.58;100.00
18504;BME280;9381;54.244;10.074;2022-12-07T01:28:40;100536.53;;;3.63;100.00
18504;BME280;9381;54.244;10.074;2022-12-07T01:33:43;100543.78;;;3.77;100.00
18504;BME280;9381;54.244;10.074;2022-12-07T01:38:45;100542.22;;;3.82;100.00
18504;BME280;9381;54.244;10.074;2022-12-07T01:44:28;100544.97;;;3.97;100.00
18504;BME280;9381;54.244;10.074;2022-12-07T01:49:44;100536.81;;;4.13;100.00
18504;BME280;9381;54.244;10.074;2022-12-07T01:54:46;100531.28;;;4.14;100.00
18504;BME280;9381;54.244;10.074;2022-12-07T01:59:49;100542.09;;;4.21;100.00
18504;BME280;9381;54.244;10.074;2022-12-07T02:04:52;100527.53;;;4.23;100.00
18504;BME280;9381;54.244;10.074;2022-12-07T02:09:53;100539.72;;;4.26;100.00
18504;BME280;9381;54.244;10.074;2022-12-07T02:14:54;100529.84;;;4.26;100.00
18504;BME280;9381;54.244;10.074;2022-12-07T02:25:52;100536.38;;;4.24;100.00
18504;BME280;9381;54.244;10.074;2022-12-07T02:31:01;100524.00;;;4.23;100.00
18504;BME280;9381;54.244;10.074;2022-12-07T02:36:16;100523.91;;;4.16;100.00
18504;BME280;9381;54.244;10.074;2022-12-07T02:41:26;100526.41;;;4.18;100.00
18504;BME280;9381;54.244;10.074;2022-12-07T02:46:43;100528.44;;;4.16;100.00
18504;BME280;9381;54.244;10.074;2022-12-07T02:51:46;100546.16;;;4.17;100.00
18504;BME280;9381;54.244;10.074;2022-12-07T02:56:57;100560.97;;;4.05;100.00
18504;BME280;9381;54.244;10.074;2022-12-07T03:07:12;100552.59;;;3.85;100.00
18504;BME280;9381;54.244;10.074;2022-12-07T03:12:21;100554.13;;;3.80;100.00
18504;BME280;9381;54.244;10.074;2022-12-07T03:17:28;100553.59;;;3.84;100.00
18504;BME280;9381;54.244;10.074;2022-12-07T03:22:34;100549.81;;;3.79;100.00
18504;BME280;9381;54.244;10.074;2022-12-07T03:27:54;100547.47;;;3.76;100.00
18504;BME280;9381;54.244;10.074;2022-12-07T03:33:04;100553.34;;;3.71;100.00
18504;BME280;9381;54.244;10.074;2022-12-07T03:38:21;100551.78;;;3.77;100.00
18504;BME280;9381;54.244;10.074;2022-12-07T03:43:22;100544.13;;;3.74;100.00
18504;BME280;9381;54.244;10.074;2022-12-07T03:48:27;100554.34;;;3.70;100.00
18504;BME280;9381;54.244;10.074;2022-12-07T03:53:43;100543.41;;;3.57;100.00
18504;BME280;9381;54.244;10.074;2022-12-07T03:58:46;100553.63;;;3.54;100.00
18504;BME280;9381;54.244;10.074;2022-12-07T04:03:47;100546.94;;;3.50;100.00
18504;BME280;9381;54.244;10.074;2022-12-07T04:08:47;100541.28;;;3.53;100.00
18504;BME280;9381;54.244;10.074;2022-12-07T04:13:47;100549.34;;;3.45;100.00
18504;BME280;9381;54.244;10.074;2022-12-07T04:19:25;100541.59;;;3.50;100.00
18504;BME280;9381;54.244;10.074;2022-12-07T04:24:26;100547.44;;;3.53;100.00
18504;BME280;9381;54.244;10.074;2022-12-07T04:29:27;100548.16;;;3.47;100.00
18504;BME280;9381;54.244;10.074;2022-12-07T04:34:27;100549.63;;;3.50;100.00
18504;BME280;9381;54.244;10.074;2022-12-07T04:39:30;100545.75;;;3.22;100.00
18504;BME280;9381;54.244;10.074;2022-12-07T04:44:30;100544.72;;;3.31;100.00
18504;BME280;9381;54.244;10.074;2022-12-07T04:49:31;100532.69;;;3.35;100.00
18504;BME280;9381;54.244;10.074;2022-12-07T04:54:31;100529.50;;;3.01;100.00
18504;BME280;9381;54.244;10.074;2022-12-07T04:59:31;100533.19;;;2.92;100.00
18504;BME280;9381;54.244;10.074;2022-12-07T05:04:31;100527.91;;;2.68;100.00
18504;BME280;9381;54.244;10.074;2022-12-07T05:09:32;100524.94;;;2.63;100.00
18504;BME280;9381;54.244;10.074;2022-12-07T05:14:32;100526.00;;;2.30;100.00
18504;BME280;9381;54.244;10.074;2022-12-07T05:19:33;100517.34;;;2.20;100.00
18504;BME280;9381;54.244;10.074;2022-12-07T05:24:33;100519.69;;;2.15;100.00
18504;BME280;9381;54.244;10.074;2022-12-07T05:29:33;100520.19;;;2.03;100.00
18504;BME280;9381;54.244;10.074;2022-12-07T05:34:34;100525.00;;;1.83;100.00
18504;BME280;9381;54.244;10.074;2022-12-07T05:39:34;100515.84;;;1.86;100.00
18504;BME280;9381;54.244;10.074;2022-12-07T05:44:34;100514.69;;;1.88;100.00
18504;BME280;9381;54.244;10.074;2022-12-07T05:49:35;100510.38;;;1.87;100.00
18504;BME280;9381;54.244;10.074;2022-12-07T05:54:35;100503.84;;;1.98;100.00
18504;BME280;9381;54.244;10.074;2022-12-07T05:59:35;100496.84;;;1.89;100.00
18504;BME280;9381;54.244;10.074;2022-12-07T06:04:38;100497.34;;;1.76;100.00
18504;BME280;9381;54.244;10.074;2022-12-07T06:09:39;100488.03;;;1.88;100.00
18504;BME280;9381;54.244;10.074;2022-12-07T06:14:40;100494.38;;;1.79;100.00
18504;BME280;9381;54.244;10.074;2022-12-07T06:19:40;100483.00;;;1.85;100.00
18504;BME280;9381;54.244;10.074;2022-12-07T06:24:41;100490.69;;;1.88;100.00
18504;BME280;9381;54.244;10.074;2022-12-07T06:29:42;100484.38;;;1.89;100.00
18504;BME280;9381;54.244;10.074;2022-12-07T06:34:42;100494.03;;;1.90;100.00
18504;BME280;9381;54.244;10.074;2022-12-07T06:39:42;100499.03;;;1.93;100.00
18504;BME280;9381;54.244;10.074;2022-12-07T06:44:43;100492.03;;;1.92;100.00
18504;BME280;9381;54.244;10.074;2022-12-07T06:49:43;100499.84;;;1.86;100.00
18504;BME280;9381;54.244;10.074;2022-12-07T06:54:43;100495.69;;;1.91;100.00
18504;BME280;9381;54.244;10.074;2022-12-07T06:59:45;100498.66;;;2.04;100.00
18504;BME280;9381;54.244;10.074;2022-12-07T07:04:45;100495.69;;;1.91;100.00
18504;BME280;9381;54.244;10.074;2022-12-07T07:09:45;100495.69;;;1.99;100.00
18504;BME280;9381;54.244;10.074;2022-12-07T07:14:46;100499.03;;;2.09;100.00
18504;BME280;9381;54.244;10.074;2022-12-07T07:19:48;100501.53;;;2.11;100.00
18504;BME280;9381;54.244;10.074;2022-12-07T07:24:48;100501.03;;;2.07;100.00
18504;BME280;9381;54.244;10.074;2022-12-07T07:29:48;100498.34;;;1.99;100.00
18504;BME280;9381;54.244;10.074;2022-12-07T07:34:49;100503.00;;;2.05;100.00
18504;BME280;9381;54.244;10.074;2022-12-07T07:39:49;100505.16;;;2.10;100.00
18504;BME280;9381;54.244;10.074;2022-12-07T07:44:49;100511.84;;;2.14;100.00
18504;BME280;9381;54.244;10.074;2022-12-07T07:49:49;100507.84;;;2.18;100.00
18504;BME280;9381;54.244;10.074;2022-12-07T07:54:50;100509.34;;;2.28;100.00
18504;BME280;9381;54.244;10.074;2022-12-07T07:59:51;100510.66;;;2.32;100.00
18504;BME280;9381;54.244;10.074;2022-12-07T08:04:52;100519.50;;;2.41;100.00
18504;BME280;9381;54.244;10.074;2022-12-07T08:09:52;100516.47;;;2.44;100.00
18504;BME280;9381;54.244;10.074;2022-12-07T08:14:52;100520.63;;;2.62;100.00
18504;BME280;9381;54.244;10.074;2022-12-07T08:19:53;100520.91;;;2.75;100.00
18504;BME280;9381;54.244;10.074;2022-12-07T08:24:53;100524.53;;;2.90;100.00
18504;BME280;9381;54.244;10.074;2022-12-07T08:29:53;100527.47;;;3.03;100.00
18504;BME280;9381;54.244;10.074;2022-12-07T08:34:54;100520.06;;;3.13;100.00
18504;BME280;9381;54.244;10.074;2022-12-07T08:39:54;100530.56;;;3.22;100.00
18504;BME280;9381;54.244;10.074;2022-12-07T08:44:56;100534.38;;;3.28;100.00
18504;BME280;9381;54.244;10.074;2022-12-07T08:49:57;100539.69;;;3.36;100.00
18504;BME280;9381;54.244;10.074;2022-12-07T08:55:04;100536.94;;;3.52;100.00
18504;BME280;9381;54.244;10.074;2022-12-07T09:00:05;100542.72;;;3.55;100.00
18504;BME280;9381;54.244;10.074;2022-12-07T09:05:06;100543.22;;;3.59;100.00
18504;BME280;9381;54.244;10.074;2022-12-07T09:10:07;100535.56;;;3.56;100.00
18504;BME280;9381;54.244;10.074;2022-12-07T09:15:08;100530.56;;;3.53;100.00
18504;BME280;9381;54.244;10.074;2022-12-07T09:20:08;100524.16;;;3.62;100.00
18504;BME280;9381;54.244;10.074;2022-12-07T09:25:09;100526.31;;;3.66;100.00
18504;BME280;9381;54.244;10.074;2022-12-07T09:30:10;100527.44;;;3.72;100.00
18504;BME280;9381;54.244;10.074;2022-12-07T09:35:10;100520.38;;;3.79;100.00
18504;BME280;9381;54.244;10.074;2022-12-07T09:40:12;100524.88;;;3.78;99.30
18504;BME280;9381;54.244;10.074;2022-12-07T09:45:17;100526.97;;;3.68;99.77
18504;BME280;9381;54.244;10.074;2022-12-07T09:50:22;100524.41;;;3.75;98.97
18504;BME280;9381;54.244;10.074;2022-12-07T09:55:26;100519.66;;;3.85;97.73
18504;BME280;9381;54.244;10.074;2022-12-07T10:00:29;100513.22;;;3.94;97.50
18504;BME280;9381;54.244;10.074;2022-12-07T10:05:34;100518.81;;;3.84;96.52
18504;BME280;9381;54.244;10.074;2022-12-07T10:10:37;100507.16;;;3.77;95.41
18504;BME280;9381;54.244;10.074;2022-12-07T10:15:44;100509.91;;;3.92;96.82
18504;BME280;9381;54.244;10.074;2022-12-07T10:20:47;100516.91;;;3.93;96.20
18504;BME280;9381;54.244;10.074;2022-12-07T10:25:47;100515.66;;;4.03;96.03
18504;BME280;9381;54.244;10.074;2022-12-07T10:30:58;100517.59;;;4.09;94.56
18504;BME280;9381;54.244;10.074;2022-12-07T10:36:00;100518.63;;;4.08;93.41
18504;BME280;9381;54.244;10.074;2022-12-07T10:41:09;100519.03;;;4.20;93.39
18504;BME280;9381;54.244;10.074;2022-12-07T10:51:43;100508.78;;;4.23;91.64
18504;BME280;9381;54.244;10.074;2022-12-07T11:02:36;100503.91;;;4.27;90.88
18504;BME280;9381;54.244;10.074;2022-12-07T11:07:55;100491.88;;;4.23;88.97
18504;BME280;9381;54.244;10.074;2022-12-07T11:18:29;100486.38;;;4.97;86.75
18504;BME280;9381;54.244;10.074;2022-12-07T11:39:35;100466.03;;;5.17;83.79
18504;BME280;9381;54.244;10.074;2022-12-07T11:44:48;100470.44;;;4.89;84.28
18504;BME280;9381;54.244;10.074;2022-12-07T11:50:11;100462.94;;;4.70;84.72
18504;BME280;9381;54.244;10.074;2022-12-07T11:55:38;100451.22;;;4.71;85.13
18504;BME280;9381;54.244;10.074;2022-12-07T12:00:41;100455.91;;;4.69;85.01
18504;BME280;9381;54.244;10.074;2022-12-07T12:05:41;100452.59;;;4.67;86.57
18504;BME280;9381;54.244;10.074;2022-12-07T12:10:49;100455.19;;;4.75;87.01
18504;BME280;9381;54.244;10.074;2022-12-07T12:16:15;100458.56;;;4.83;86.46
18504;BME280;9381;54.244;10.074;2022-12-07T12:21:23;100451.22;;;4.71;84.68
18504;BME280;9381;54.244;10.074;2022-12-07T12:26:30;100460.53;;;4.60;84.71
18504;BME280;9381;54.244;10.074;2022-12-07T12:31:37;100452.78;;;4.65;86.15
18504;BME280;9381;54.244;10.074;2022-12-07T12:46:56;100464.41;;;4.58;86.18
18504;BME280;9381;54.244;10.074;2022-12-07T12:57:31;100460.53;;;4.46;84.99
18504;BME280;9381;54.244;10.074;2022-12-07T13:02:38;100463.84;;;4.48;85.73
18504;BME280;9381;54.244;10.074;2022-12-07T13:18:25;100465.59;;;4.26;85.77
18504;BME280;9381;54.244;10.074;2022-12-07T13:28:58;100477.66;;;4.08;85.72
18504;BME280;9381;54.244;10.074;2022-12-07T13:39:45;100470.78;;;3.91;86.83
18504;BME280;9381;54.244;10.074;2022-12-07T13:44:45;100478.81;;;3.91;87.13
18504;BME280;9381;54.244;10.074;2022-12-07T13:49:49;100474.81;;;3.87;87.71
18504;BME280;9381;54.244;10.074;2022-12-07T13:54:58;100474.53;;;3.82;87.54
18504;BME280;9381;54.244;10.074;2022-12-07T13:59:59;100478.22;;;3.81;86.94
18504;BME280;9381;54.244;10.074;2022-12-07T14:05:23;100464.97;;;3.65;88.61
18504;BME280;9381;54.244;10.074;2022-12-07T14:10:25;100471.50;;;3.62;88.73
18504;BME280;9381;54.244;10.074;2022-12-07T14:15:33;100478.75;;;3.54;89.44
18504;BME280;9381;54.244;10.074;2022-12-07T14:20:39;100479.47;;;3.48;89.23
18504;BME280;9381;54.244;10.074;2022-12-07T14:25:50;100475.28;;;3.45;89.25
18504;BME280;9381;54.244;10.074;2022-12-07T14:30:51;100478.75;;;3.31;89.59
18504;BME280;9381;54.244;10.074;2022-12-07T14:35:52;100491.22;;;3.39;90.42
18504;BME280;9381;54.244;10.074;2022-12-07T14:40:56;100487.53;;;3.40;89.93
18504;BME280;9381;54.244;10.074;2022-12-07T14:46:20;100491.78;;;3.26;90.72
18504;BME280;9381;54.244;10.074;2022-12-07T14:51:20;100483.28;;;3.23;90.96
18504;BME280;9381;54.244;10.074;2022-12-07T14:56:20;100501.31;;;3.29;89.97
18504;BME280;9381;54.244;10.074;2022-12-07T15:01:21;100485.59;;;3.34;88.52
18504;BME280;9381;54.244;10.074;2022-12-07T15:06:22;100491.66;;;3.20;89.90
18504;BME280;9381;54.244;10.074;2022-12-07T15:11:22;100486.66;;;3.17;90.25
18504;BME280;9381;54.244;10.074;2022-12-07T15:16:23;100483.69;;;3.12;90.61
18504;BME280;9381;54.244;10.074;2022-12-07T15:21:23;100480.34;;;3.10;89.55
18504;BME280;9381;54.244;10.074;2022-12-07T15:26:23;100472.75;;;2.99;90.16
18504;BME280;9381;54.244;10.074;2022-12-07T15:31:24;100473.38;;;3.01;91.00
18504;BME280;9381;54.244;10.074;2022-12-07T15:36:27;100464.41;;;2.94;91.17
18504;BME280;9381;54.244;10.074;2022-12-07T15:41:28;100474.44;;;2.92;92.04
18504;BME280;9381;54.244;10.074;2022-12-07T15:46:33;100471.63;;;2.85;92.93
18504;BME280;9381;54.244;10.074;2022-12-07T15:51:33;100469.47;;;2.81;92.69
18504;BME280;9381;54.244;10.074;2022-12-07T15:56:36;100477.16;;;2.76;93.16
18504;BME280;9381;54.244;10.074;2022-12-07T16:01:37;100461.50;;;2.73;92.58
18504;BME280;9381;54.244;10.074;2022-12-07T16:06:38;100477.03;;;2.70;92.52
18504;BME280;9381;54.244;10.074;2022-12-07T16:11:38;100473.88;;;2.66;93.04
18504;BME280;9381;54.244;10.074;2022-12-07T16:16:39;100462.91;;;2.53;92.46
18504;BME280;9381;54.244;10.074;2022-12-07T16:21:42;100472.75;;;2.45;92.96
18504;BME280;9381;54.244;10.074;2022-12-07T16:26:44;100475.13;;;2.40;92.53
18504;BME280;9381;54.244;10.074;2022-12-07T16:31:45;100479.63;;;2.39;92.28
18504;BME280;9381;54.244;10.074;2022-12-07T16:36:45;100472.97;;;2.35;92.76
18504;BME280;9381;54.244;10.074;2022-12-07T16:41:46;100468.78;;;2.33;93.66
18504;BME280;9381;54.244;10.074;2022-12-07T16:46:46;100469.66;;;2.25;93.62
18504;BME280;9381;54.244;10.074;2022-12-07T16:51:50;100458.66;;;2.20;94.14
18504;BME280;9381;54.244;10.074;2022-12-07T16:56:53;100464.81;;;2.21;94.40
18504;BME280;9381;54.244;10.074;2022-12-07T17:01:54;100461.81;;;2.16;94.92
18504;BME280;9381;54.244;10.074;2022-12-07T17:06:54;100468.00;;;2.08;94.62
18504;BME280;9381;54.244;10.074;2022-12-07T17:11:54;100466.34;;;1.99;94.91
18504;BME280;9381;54.244;10.074;2022-12-07T17:16:55;100463.84;;;1.98;94.15
18504;BME280;9381;54.244;10.074;2022-12-07T17:21:55;100455.69;;;1.83;94.45
18504;BME280;9381;54.244;10.074;2022-12-07T17:26:56;100450.34;;;1.83;94.58
18504;BME280;9381;54.244;10.074;2022-12-07T17:31:56;100456.34;;;1.85;94.63
18504;BME280;9381;54.244;10.074;2022-12-07T17:36:56;100451.72;;;1.79;94.47
18504;BME280;9381;54.244;10.074;2022-12-07T17:41:57;100446.19;;;1.81;93.17
18504;BME280;9381;54.244;10.074;2022-12-07T17:47:16;100451.19;;;1.76;93.71
18504;BME280;9381;54.244;10.074;2022-12-07T17:52:18;100451.19;;;1.76;93.53
18504;BME280;9381;54.244;10.074;2022-12-07T17:57:37;100450.84;;;1.71;94.38
18504;BME280;9381;54.244;10.074;2022-12-07T18:02:37;100446.03;;;1.58;95.39
18504;BME280;9381;54.244;10.074;2022-12-07T18:07:38;100439.03;;;1.65;94.80
18504;BME280;9381;54.244;10.074;2022-12-07T18:12:38;100427.03;;;1.53;95.93
18504;BME280;9381;54.244;10.074;2022-12-07T18:17:41;100423.69;;;1.59;95.97
18504;BME280;9381;54.244;10.074;2022-12-07T18:22:42;100432.69;;;1.66;95.64
18504;BME280;9381;54.244;10.074;2022-12-07T18:27:42;100431.38;;;1.62;96.05
18504;BME280;9381;54.244;10.074;2022-12-07T18:32:42;100430.53;;;1.70;96.06
18504;BME280;9381;54.244;10.074;2022-12-07T18:37:43;100425.34;;;1.68;96.37
18504;BME280;9381;54.244;10.074;2022-12-07T18:42:43;100427.88;;;1.70;96.39
18504;BME280;9381;54.244;10.074;2022-12-07T18:47:44;100426.38;;;1.75;96.04
18504;BME280;9381;54.244;10.074;2022-12-07T18:52:44;100426.22;;;1.69;96.14
18504;BME280;9381;54.244;10.074;2022-12-07T18:57:44;100421.88;;;1.68;95.94
18504;BME280;9381;54.244;10.074;2022-12-07T19:02:45;100419.56;;;1.65;96.41
18504;BME280;9381;54.244;10.074;2022-12-07T19:07:46;100419.06;;;1.61;96.59
18504;BME280;9381;54.244;10.074;2022-12-07T19:12:47;100415.69;;;1.59;96.57
18504;BME280;9381;54.244;10.074;2022-12-07T19:17:47;100406.72;;;1.60;97.20
18504;BME280;9381;54.244;10.074;2022-12-07T19:22:48;100396.38;;;1.57;97.47
18504;BME280;9381;54.244;10.074;2022-12-07T19:27:48;100387.72;;;1.55;97.52
18504;BME280;9381;54.244;10.074;2022-12-07T19:32:48;100389.38;;;1.56;97.85
18504;BME280;9381;54.244;10.074;2022-12-07T19:37:49;100387.22;;;1.52;98.37
18504;BME280;9381;54.244;10.074;2022-12-07T19:42:49;100388.88;;;1.53;98.64
18504;BME280;9381;54.244;10.074;2022-12-07T19:47:50;100390.03;;;1.58;98.74
18504;BME280;9381;54.244;10.074;2022-12-07T19:52:50;100378.72;;;1.56;99.16
18504;BME280;9381;54.244;10.074;2022-12-07T19:57:50;100377.91;;;1.56;99.52
18504;BME280;9381;54.244;10.074;2022-12-07T20:02:51;100370.06;;;1.62;99.10
18504;BME280;9381;54.244;10.074;2022-12-07T20:07:51;100360.72;;;1.58;99.43
18504;BME280;9381;54.244;10.074;2022-12-07T20:12:52;100358.91;;;1.59;99.72
18504;BME280;9381;54.244;10.074;2022-12-07T20:18:10;100352.44;;;1.53;100.00
18504;BME280;9381;54.244;10.074;2022-12-07T20:23:11;100342.25;;;1.57;100.00
18504;BME280;9381;54.244;10.074;2022-12-07T20:28:11;100336.09;;;1.56;100.00
18504;BME280;9381;54.244;10.074;2022-12-07T20:33:11;100333.13;;;1.51;100.00
18504;BME280;9381;54.244;10.074;2022-12-07T20:38:12;100339.44;;;1.42;99.87
18504;BME280;9381;54.244;10.074;2022-12-07T20:43:13;100332.13;;;1.44;99.28
18504;BME280;9381;54.244;10.074;2022-12-07T20:48:14;100333.78;;;1.29;99.38
18504;BME280;9381;54.244;10.074;2022-12-07T20:53:15;100324.28;;;1.43;99.58
18504;BME280;9381;54.244;10.074;2022-12-07T20:58:15;100324.47;;;1.33;100.00
18504;BME280;9381;54.244;10.074;2022-12-07T21:03:16;100322.97;;;1.39;100.00
18504;BME280;9381;54.244;10.074;2022-12-07T21:08:16;100308.63;;;1.40;100.00
18504;BME280;9381;54.244;10.074;2022-12-07T21:13:17;100304.13;;;1.40;100.00
18504;BME280;9381;54.244;10.074;2022-12-07T21:18:18;100294.47;;;1.47;100.00
18504;BME280;9381;54.244;10.074;2022-12-07T21:23:18;100290.00;;;1.40;99.88
18504;BME280;9381;54.244;10.074;2022-12-07T21:28:19;100289.63;;;1.51;98.99
18504;BME280;9381;54.244;10.074;2022-12-07T21:33:19;100296.78;;;1.58;98.57
18504;BME280;9381;54.244;10.074;2022-12-07T21:38:19;100290.44;;;1.59;98.80
18504;BME280;9381;54.244;10.074;2022-12-07T21:43:20;100295.44;;;1.70;98.20
18504;BME280;9381;54.244;10.074;2022-12-07T21:48:20;100284.75;;;1.78;99.35
18504;BME280;9381;54.244;10.074;2022-12-07T21:53:21;100276.03;;;1.84;98.53
18504;BME280;9381;54.244;10.074;2022-12-07T21:58:22;100265.38;;;1.84;99.22
18504;BME280;9381;54.244;10.074;2022-12-07T22:03:22;100263.72;;;1.83;98.71
18504;BME280;9381;54.244;10.074;2022-12-07T22:08:23;100255.38;;;1.86;98.89
18504;BME280;9381;54.244;10.074;2022-12-07T22:13:23;100253.06;;;1.83;98.72
18504;BME280;9381;54.244;10.074;2022-12-07T22:18:43;100247.38;;;1.86;98.14
18504;BME280;9381;54.244;10.074;2022-12-07T22:23:44;100242.38;;;1.83;97.85
18504;BME280;9381;54.244;10.074;2022-12-07T22:28:44;100239.34;;;1.94;97.58
18504;BME280;9381;54.244;10.074;2022-12-07T22:33:45;100230.31;;;1.95;97.18
18504;BME280;9381;54.244;10.074;2022-12-07T22:38:46;100221.66;;;2.01;97.43
18504;BME280;9381;54.244;10.074;2022-12-07T22:43:46;100214.81;;;1.99;99.03
18504;BME280;9381;54.244;10.074;2022-12-07T22:48:47;100203.34;;;1.98;100.00
18504;BME280;9381;54.244;10.074;2022-12-07T22:53:48;100200.63;;;2.06;100.00
18504;BME280;9381;54.244;10.074;2022-12-07T22:58:49;100194.28;;;2.07;100.00
18504;BME280;9381;54.244;10.074;2022-12-07T23:03:49;100188.25;;;2.05;100.00
18504;BME280;9381;54.244;10.074;2022-12-07T23:08:50;100186.28;;;2.07;100.00
18504;BME280;9381;54.244;10.074;2022-12-07T23:13:50;100184.94;;;2.03;100.00
18504;BME280;9381;54.244;10.074;2022-12-07T23:18:51;100170.97;;;2.01;100.00
18504;BME280;9381;54.244;10.074;2022-12-07T23:23:51;100166.13;;;2.05;100.00
18504;BME280;9381;54.244;10.074;2022-12-07T23:28:51;100161.97;;;2.02;100.00
18504;BME280;9381;54.244;10.074;2022-12-07T23:33:52;100150.75;;;2.07;100.00
18504;BME280;9381;54.244;10.074;2022-12-07T23:38:54;100147.63;;;2.03;100.00
18504;BME280;9381;54.244;10.074;2022-12-07T23:43:57;100145.25;;;2.08;100.00
18504;BME280;9381;54.244;10.074;2022-12-07T23:48:59;100123.03;;;2.16;100.00
18504;BME280;9381;54.244;10.074;2022-12-07T23:54:01;100114.97;;;2.01;100.00
18504;BME280;9381;54.244;10.074;2022-12-07T23:59:02;100107.13;;;2.00;100.00
